Time;durP1;ratioP1;P1;durP2;ratioP2;P2;SDS_P1;SDS_P2;PMS_P1;PMS_P2;Temp;Humidity;BMP_temperature;BMP_pressure;BME280_temperature;BME280_humidity;BME280_pressure;Samples;Min_cycle;Max_cycle;Signal;HPM_P1;HPM_P2
2022/11/18 00:00:45;;;;;;;;;;;19.20;68.30;;;;;;5041217;28;994;-69
2022/11/18 00:03:10;;;;;;;;;;;19.20;68.30;;;;;;5042216;28;801;-69
2022/11/18 00:05:36;;;;;;;;;;;19.20;68.30;;;;;;5039357;28;1906;-69
2022/11/18 00:08:01;;;;;;;;;;;19.20;68.30;;;;;;5043384;28;1193;-69
2022/11/18 00:10:27;;;;;;;;;;;19.20;68.30;;;;;;5040318;28;824;-68
2022/11/18 00:15:36;;;;;;;;;;;19.20;68.30;;;;;;5040700;28;1556;-69
2022/11/18 00:18:02;;;;;;;;;;;19.20;68.30;;;;;;5040094;28;1418;-68
2022/11/18 00:20:27;;;;;;;;;;;19.10;68.30;;;;;;5039205;28;1402;-68
2022/11/18 00:22:53;;;;;;;;;;;19.20;68.40;;;;;;5039793;28;1596;-68
2022/11/18 00:25:18;;;;;;;;;;;19.20;68.40;;;;;;5022129;28;1415;-68
2022/11/18 00:27:44;;;;;;;;;;;19.20;68.40;;;;;;5040904;28;1965;-68
2022/11/18 00:30:10;;;;;;;;;;;19.20;68.40;;;;;;5041175;28;1362;-68
2022/11/18 00:32:35;;;;;;;;;;;19.20;68.40;;;;;;5042802;28;1325;-69
2022/11/18 00:35:00;;;;;;;;;;;19.20;68.40;;;;;;5040146;28;1505;-68
2022/11/18 00:37:26;;;;;;;;;;;19.20;68.40;;;;;;5040112;28;1464;-69
2022/11/18 00:39:51;;;;;;;;;;;19.20;68.50;;;;;;5041611;28;1384;-69
2022/11/18 00:45:01;;;;;;;;;;;19.20;68.50;;;;;;5040769;28;806;-68
2022/11/18 00:47:26;;;;;;;;;;;19.10;68.40;;;;;;5037905;28;1898;-68
2022/11/18 00:49:52;;;;;;;;;;;19.10;68.40;;;;;;5038204;28;780;-69
2022/11/18 00:52:17;;;;;;;;;;;19.20;68.50;;;;;;5042130;28;899;-69
2022/11/18 00:54:43;;;;;;;;;;;19.10;68.40;;;;;;5042902;28;956;-69
2022/11/18 00:57:08;;;;;;;;;;;19.10;68.40;;;;;;5034100;28;1288;-69
2022/11/18 00:59:34;;;;;;;;;;;19.10;68.50;;;;;;5040335;28;924;-69
2022/11/18 01:01:59;;;;;;;;;;;19.10;68.50;;;;;;5035606;28;921;-69
2022/11/18 01:04:24;;;;;;;;;;;19.10;68.50;;;;;;5035481;28;883;-69
2022/11/18 01:06:50;;;;;;;;;;;19.10;68.50;;;;;;5039682;28;1930;-69
2022/11/18 01:09:15;;;;;;;;;;;19.10;68.40;;;;;;5039519;28;828;-69
2022/11/18 01:14:25;;;;;;;;;;;19.10;68.50;;;;;;5038010;28;1495;-69
2022/11/18 01:16:54;;;;;;;;;;;19.10;68.50;;;;;;5039804;28;1385;-69
2022/11/18 01:19:20;;;;;;;;;;;19.10;68.50;;;;;;5022635;28;889;-69
2022/11/18 01:21:45;;;;;;;;;;;19.10;68.50;;;;;;5037409;28;899;-68
2022/11/18 01:24:10;;;;;;;;;;;19.10;68.50;;;;;;5040398;28;889;-70
2022/11/18 01:26:36;;;;;;;;;;;19.10;68.50;;;;;;5034566;28;1971;-70
2022/11/18 01:29:01;;;;;;;;;;;19.10;68.50;;;;;;5039056;28;895;-70
2022/11/18 01:31:27;;;;;;;;;;;19.10;68.60;;;;;;5040153;28;911;-70
2022/11/18 01:33:52;;;;;;;;;;;19.10;68.50;;;;;;5037120;28;871;-68
2022/11/18 01:36:18;;;;;;;;;;;19.10;68.50;;;;;;5038377;28;1271;-68
2022/11/18 01:38:44;;;;;;;;;;;19.10;68.50;;;;;;5039882;28;814;-68
2022/11/18 01:41:09;;;;;;;;;;;19.10;68.60;;;;;;5038621;28;865;-68
2022/11/18 01:43:48;;;;;;;;;;;19.10;68.60;;;;;;5038036;28;930;-69
2022/11/18 01:46:13;;;;;;;;;;;19.10;69.40;;;;;;5034555;28;1890;-68
2022/11/18 01:48:39;;;;;;;;;;;19.10;68.60;;;;;;5038271;28;876;-68
2022/11/18 01:51:08;;;;;;;;;;;19.10;68.60;;;;;;5023445;28;883;-68
2022/11/18 01:53:35;;;;;;;;;;;19.10;68.60;;;;;;5021786;28;903;-68
2022/11/18 01:56:02;;;;;;;;;;;19.10;68.70;;;;;;5033414;28;1220;-68
2022/11/18 01:58:29;;;;;;;;;;;19.10;68.60;;;;;;5040485;28;1025;-68
2022/11/18 02:00:55;;;;;;;;;;;19.10;68.70;;;;;;5037374;28;885;-70
2022/11/18 02:03:20;;;;;;;;;;;19.10;68.70;;;;;;5041292;28;903;-69
2022/11/18 02:05:46;;;;;;;;;;;19.10;68.70;;;;;;5043622;28;1902;-69
2022/11/18 02:08:11;;;;;;;;;;;19.10;68.70;;;;;;5041208;28;1259;-68
2022/11/18 02:10:37;;;;;;;;;;;19.10;68.70;;;;;;5040654;28;813;-68
2022/11/18 02:13:02;;;;;;;;;;;19.10;68.70;;;;;;5039217;28;877;-68
2022/11/18 02:15:39;;;;;;;;;;;19.10;68.70;;;;;;5039573;28;1543;-69
2022/11/18 02:18:17;;;;;;;;;;;19.00;68.70;;;;;;5040135;28;1287;-69
2022/11/18 02:20:45;;;;;;;;;;;19.10;68.70;;;;;;5045119;28;1006;-69
2022/11/18 02:23:24;;;;;;;;;;;19.10;68.70;;;;;;5039647;28;886;-69
2022/11/18 02:25:55;;;;;;;;;;;19.00;68.60;;;;;;5025141;28;1906;-69
2022/11/18 02:28:23;;;;;;;;;;;19.10;68.80;;;;;;5041605;28;1225;-69
2022/11/18 02:30:51;;;;;;;;;;;19.10;68.80;;;;;;5026441;28;907;-69
2022/11/18 02:33:17;;;;;;;;;;;19.00;68.70;;;;;;5038261;28;1124;-69
2022/11/18 02:35:46;;;;;;;;;;;19.00;68.70;;;;;;5032700;28;965;-68
2022/11/18 02:38:25;;;;;;;;;;;19.00;68.70;;;;;;5010426;28;1328;-68
2022/11/18 02:40:52;;;;;;;;;;;19.00;68.70;;;;;;5027049;28;1025;-68
2022/11/18 02:43:20;;;;;;;;;;;19.10;68.80;;;;;;5039653;28;894;-68
2022/11/18 02:45:47;;;;;;;;;;;19.00;68.70;;;;;;5040871;28;1898;-68
2022/11/18 02:48:12;;;;;;;;;;;19.00;68.70;;;;;;5021279;28;1209;-68
2022/11/18 02:50:38;;;;;;;;;;;19.00;68.70;;;;;;5039455;28;820;-68
2022/11/18 02:53:04;;;;;;;;;;;19.00;68.70;;;;;;5041394;28;891;-68
2022/11/18 02:55:30;;;;;;;;;;;19.00;68.70;;;;;;5039409;28;1182;-69
2022/11/18 02:57:56;;;;;;;;;;;19.00;68.70;;;;;;5024291;28;1397;-69
2022/11/18 03:00:21;;;;;;;;;;;19.00;68.70;;;;;;5036149;28;1042;-69
2022/11/18 03:02:47;;;;;;;;;;;19.00;68.80;;;;;;5037310;28;843;-69
2022/11/18 03:05:25;;;;;;;;;;;19.00;68.70;;;;;;5023906;28;1207;-70
2022/11/18 03:07:52;;;;;;;;;;;19.00;68.70;;;;;;5020556;28;1886;-70
2022/11/18 03:10:18;;;;;;;;;;;19.00;68.70;;;;;;5041117;28;808;-70
2022/11/18 03:12:49;;;;;;;;;;;19.00;68.70;;;;;;5040487;28;977;-70
2022/11/18 03:15:33;;;;;;;;;;;19.00;68.70;;;;;;5041197;28;1565;-69
2022/11/18 03:18:14;;;;;;;;;;;19.00;68.70;;;;;;5035644;28;1357;-69
2022/11/18 03:20:40;;;;;;;;;;;19.00;68.70;;;;;;5042832;28;860;-70
2022/11/18 03:23:13;;;;;;;;;;;19.00;69.50;;;;;;5043639;28;843;-68
2022/11/18 03:25:39;;;;;;;;;;;19.00;68.70;;;;;;5037584;28;1934;-68
2022/11/18 03:28:04;;;;;;;;;;;19.00;68.70;;;;;;5040507;28;1217;-68
2022/11/18 03:30:30;;;;;;;;;;;19.00;68.80;;;;;;5042397;28;832;-68
2022/11/18 03:32:56;;;;;;;;;;;19.00;68.70;;;;;;5025629;28;914;-69
2022/11/18 03:35:23;;;;;;;;;;;19.00;68.80;;;;;;5019527;28;830;-69
2022/11/18 03:37:50;;;;;;;;;;;19.00;68.80;;;;;;5040084;28;1299;-70
2022/11/18 03:40:22;;;;;;;;;;;19.00;68.70;;;;;;5037623;28;948;-72
2022/11/18 03:43:11;;;;;;;;;;;19.00;68.70;;;;;;5026825;28;836;-71
2022/11/18 03:45:38;;;;;;;;;;;19.00;68.80;;;;;;5031017;28;1894;-71
2022/11/18 03:48:07;;;;;;;;;;;19.00;68.70;;;;;;5039244;28;1306;-69
2022/11/18 03:50:34;;;;;;;;;;;19.00;68.70;;;;;;5038073;28;1660;-69
2022/11/18 03:52:59;;;;;;;;;;;19.00;68.70;;;;;;5034210;28;1171;-69
2022/11/18 03:55:34;;;;;;;;;;;19.00;68.70;;;;;;5035906;28;1043;-69
2022/11/18 03:58:04;;;;;;;;;;;19.00;68.70;;;;;;5036027;28;1302;-69
2022/11/18 04:00:35;;;;;;;;;;;19.00;68.70;;;;;;5037977;28;904;-69
2022/11/18 04:03:00;;;;;;;;;;;19.00;68.80;;;;;;5038082;28;947;-68
2022/11/18 04:05:26;;;;;;;;;;;19.00;68.70;;;;;;5038122;28;1022;-68
2022/11/18 04:07:51;;;;;;;;;;;19.00;68.80;;;;;;5036222;28;1906;-68
2022/11/18 04:10:21;;;;;;;;;;;19.00;68.70;;;;;;5037402;28;887;-68
2022/11/18 04:12:56;;;;;;;;;;;19.00;68.80;;;;;;5024884;28;1485;-68
2022/11/18 04:15:21;;;;;;;;;;;19.00;68.80;;;;;;5039696;28;1149;-68
2022/11/18 04:17:47;;;;;;;;;;;19.00;68.80;;;;;;5037712;28;1471;-68
2022/11/18 04:20:13;;;;;;;;;;;19.00;68.80;;;;;;5036617;28;881;-68
2022/11/18 04:22:39;;;;;;;;;;;19.00;68.80;;;;;;5023389;28;860;-68
2022/11/18 04:25:04;;;;;;;;;;;19.00;68.80;;;;;;5040602;28;857;-68
2022/11/18 04:27:30;;;;;;;;;;;19.00;68.80;;;;;;5039814;28;1981;-68
2022/11/18 04:29:55;;;;;;;;;;;19.00;68.80;;;;;;5040155;28;923;-67
2022/11/18 04:32:21;;;;;;;;;;;19.00;68.80;;;;;;5039205;28;1372;-68
2022/11/18 04:34:46;;;;;;;;;;;19.00;68.80;;;;;;5038325;28;788;-67
2022/11/18 04:37:12;;;;;;;;;;;19.00;68.80;;;;;;5037875;28;1288;-67
2022/11/18 04:39:37;;;;;;;;;;;19.00;68.80;;;;;;5037861;28;1026;-68
2022/11/18 04:42:03;;;;;;;;;;;19.00;68.80;;;;;;5038974;28;876;-68
2022/11/18 04:44:29;;;;;;;;;;;19.00;68.80;;;;;;5038059;28;881;-68
2022/11/18 04:46:55;;;;;;;;;;;19.00;69.10;;;;;;5036301;28;1906;-68
2022/11/18 04:49:20;;;;;;;;;;;19.00;68.80;;;;;;5040200;28;911;-67
2022/11/18 04:51:46;;;;;;;;;;;19.00;68.80;;;;;;5040221;28;1402;-68
2022/11/18 04:54:12;;;;;;;;;;;19.00;68.80;;;;;;5037781;28;867;-68
2022/11/18 04:56:37;;;;;;;;;;;19.00;68.80;;;;;;5037212;28;1288;-68
2022/11/18 04:59:03;;;;;;;;;;;19.00;68.90;;;;;;5036672;28;876;-68
2022/11/18 05:01:28;;;;;;;;;;;19.00;68.80;;;;;;5035177;28;839;-67
2022/11/18 05:03:54;;;;;;;;;;;19.00;68.80;;;;;;5033935;28;1002;-67
2022/11/18 05:06:19;;;;;;;;;;;19.00;68.80;;;;;;5034983;28;2001;-68
2022/11/18 05:08:45;;;;;;;;;;;19.00;68.80;;;;;;5019895;28;1319;-70
2022/11/18 05:13:54;;;;;;;;;;;19.00;68.80;;;;;;5041654;28;1067;-70
2022/11/18 05:16:19;;;;;;;;;;;19.00;68.70;;;;;;5019595;28;1275;-68
2022/11/18 05:18:45;;;;;;;;;;;19.00;68.70;;;;;;5036642;28;828;-68
2022/11/18 05:21:10;;;;;;;;;;;19.00;68.50;;;;;;5037289;28;1391;-68
2022/11/18 05:23:36;;;;;;;;;;;19.10;68.50;;;;;;5038388;28;1389;-68
2022/11/18 05:26:02;;;;;;;;;;;19.10;69.20;;;;;;5038502;28;1906;-68
2022/11/18 05:28:28;;;;;;;;;;;19.10;68.30;;;;;;5021583;28;880;-69
2022/11/18 05:30:53;;;;;;;;;;;19.20;68.20;;;;;;5037973;28;886;-69
2022/11/18 05:33:19;;;;;;;;;;;19.20;68.10;;;;;;5040514;28;810;-67
2022/11/18 05:35:44;;;;;;;;;;;19.20;68.10;;;;;;5038118;28;880;-68
2022/11/18 05:38:09;;;;;;;;;;;19.20;68.00;;;;;;5037878;28;1212;-68
2022/11/18 05:40:35;;;;;;;;;;;19.20;67.90;;;;;;5037529;28;954;-67
2022/11/18 05:43:10;;;;;;;;;;;19.30;67.90;;;;;;5042579;28;891;-67
2022/11/18 05:45:35;;;;;;;;;;;19.30;67.80;;;;;;5036987;28;1197;-67
2022/11/18 05:48:03;;;;;;;;;;;19.30;67.70;;;;;;5037343;28;1898;-68
2022/11/18 05:50:29;;;;;;;;;;;19.30;67.60;;;;;;5041095;28;957;-67
2022/11/18 05:52:54;;;;;;;;;;;19.40;67.60;;;;;;5031921;28;1843;-72
2022/11/18 05:55:20;;;;;;;;;;;19.40;67.50;;;;;;5023782;28;1870;-68
2022/11/18 05:57:45;;;;;;;;;;;19.40;67.40;;;;;;5038139;28;1398;-69
2022/11/18 06:00:11;;;;;;;;;;;19.40;67.40;;;;;;5040666;28;951;-70
2022/11/18 06:02:37;;;;;;;;;;;19.40;67.30;;;;;;5041267;28;1073;-68
2022/11/18 06:05:02;;;;;;;;;;;19.40;67.20;;;;;;5036228;28;817;-70
2022/11/18 06:07:28;;;;;;;;;;;19.40;67.20;;;;;;5038681;28;1969;-69
2022/11/18 06:09:55;;;;;;;;;;;19.50;67.20;;;;;;5042180;28;831;-71
2022/11/18 06:12:22;;;;;;;;;;;19.50;67.20;;;;;;5020469;28;875;-70
2022/11/18 06:14:48;;;;;;;;;;;19.50;67.10;;;;;;5037298;28;1435;-70
2022/11/18 06:17:15;;;;;;;;;;;19.50;67.00;;;;;;5035459;28;1293;-70
2022/11/18 06:19:41;;;;;;;;;;;19.50;67.00;;;;;;5029011;28;966;-71
2022/11/18 06:22:07;;;;;;;;;;;19.50;66.90;;;;;;5035596;28;1010;-70
2022/11/18 06:24:32;;;;;;;;;;;19.50;66.90;;;;;;5037229;28;851;-70
2022/11/18 06:26:58;;;;;;;;;;;19.50;66.90;;;;;;5034403;28;1910;-68
2022/11/18 06:29:24;;;;;;;;;;;19.50;66.80;;;;;;5038538;28;874;-68
2022/11/18 06:31:49;;;;;;;;;;;19.50;66.80;;;;;;5038265;28;883;-69
2022/11/18 06:34:14;;;;;;;;;;;19.50;66.80;;;;;;5038946;28;878;-68
2022/11/18 06:36:40;;;;;;;;;;;19.50;66.80;;;;;;5036438;28;1334;-69
2022/11/18 06:39:05;;;;;;;;;;;19.60;66.80;;;;;;5038128;28;891;-71
2022/11/18 06:41:31;;;;;;;;;;;19.50;66.70;;;;;;5037881;28;895;-69
2022/11/18 06:43:57;;;;;;;;;;;19.50;66.70;;;;;;5044960;28;1279;-69
2022/11/18 06:49:06;;;;;;;;;;;19.60;66.70;;;;;;5038352;28;859;-70
2022/11/18 06:51:31;;;;;;;;;;;19.60;66.70;;;;;;5033176;28;943;-70
2022/11/18 06:53:57;;;;;;;;;;;19.50;66.60;;;;;;5041390;28;783;-70
2022/11/18 06:56:22;;;;;;;;;;;19.60;66.60;;;;;;5040824;28;1359;-70
2022/11/18 06:58:51;;;;;;;;;;;19.60;66.60;;;;;;5043030;28;883;-70
2022/11/18 07:01:18;;;;;;;;;;;19.60;66.60;;;;;;5037875;28;800;-70
2022/11/18 07:03:44;;;;;;;;;;;19.60;66.60;;;;;;5037547;28;923;-70
2022/11/18 07:06:09;;;;;;;;;;;19.60;66.60;;;;;;5030439;28;1961;-70
2022/11/18 07:08:35;;;;;;;;;;;19.60;66.50;;;;;;5023560;28;998;-70
2022/11/18 07:11:02;;;;;;;;;;;19.60;66.60;;;;;;5041128;28;886;-71
2022/11/18 07:13:27;;;;;;;;;;;19.60;66.50;;;;;;5037095;28;1548;-69
2022/11/18 07:15:52;;;;;;;;;;;19.60;66.50;;;;;;5038862;28;867;-70
2022/11/18 07:18:18;;;;;;;;;;;19.60;66.50;;;;;;5040873;28;1218;-71
2022/11/18 07:20:43;;;;;;;;;;;19.60;66.50;;;;;;5039050;28;868;-70
2022/11/18 07:23:09;;;;;;;;;;;19.60;66.50;;;;;;5041052;28;868;-70
2022/11/18 07:25:34;;;;;;;;;;;19.60;66.50;;;;;;5038041;28;1123;-69
2022/11/18 07:28:00;;;;;;;;;;;19.60;66.50;;;;;;5036786;28;1977;-71
2022/11/18 07:30:25;;;;;;;;;;;19.60;66.50;;;;;;5037489;28;845;-72
2022/11/18 07:32:51;;;;;;;;;;;19.60;66.50;;;;;;5039458;28;939;-70
2022/11/18 07:35:17;;;;;;;;;;;19.60;66.50;;;;;;5040472;28;1002;-69
2022/11/18 07:37:43;;;;;;;;;;;19.60;66.50;;;;;;5038948;28;1338;-69
2022/11/18 07:40:09;;;;;;;;;;;19.60;66.50;;;;;;5026038;28;854;-68
2022/11/18 07:42:41;;;;;;;;;;;19.60;66.50;;;;;;5039826;28;998;-69
2022/11/18 07:45:10;;;;;;;;;;;19.60;66.50;;;;;;5039537;28;858;-68
2022/11/18 07:47:35;;;;;;;;;;;19.60;66.40;;;;;;5040851;28;1906;-68
2022/11/18 07:50:01;;;;;;;;;;;19.60;66.50;;;;;;5022781;28;797;-69
2022/11/18 07:52:26;;;;;;;;;;;19.60;66.50;;;;;;5040010;28;895;-69
2022/11/18 07:54:52;;;;;;;;;;;19.60;66.50;;;;;;5039043;28;1250;-71
2022/11/18 07:57:17;;;;;;;;;;;19.60;66.40;;;;;;5035149;28;1548;-69
2022/11/18 07:59:42;;;;;;;;;;;19.60;66.50;;;;;;5033976;28;912;-70
2022/11/18 08:02:11;;;;;;;;;;;19.60;66.50;;;;;;5022409;28;1062;-69
2022/11/18 08:04:37;;;;;;;;;;;19.60;66.50;;;;;;5024356;28;2253;-70
2022/11/18 08:07:02;;;;;;;;;;;19.60;66.50;;;;;;5040749;28;1927;-70
2022/11/18 08:09:28;;;;;;;;;;;19.60;66.50;;;;;;5040987;28;1359;-69
2022/11/18 08:11:53;;;;;;;;;;;19.60;66.50;;;;;;5039594;28;917;-70
2022/11/18 08:14:20;;;;;;;;;;;19.60;66.50;;;;;;5036862;28;968;-69
2022/11/18 08:16:46;;;;;;;;;;;19.60;66.60;;;;;;5035947;28;1279;-70
2022/11/18 08:19:11;;;;;;;;;;;19.60;66.50;;;;;;5037702;28;873;-70
2022/11/18 08:21:37;;;;;;;;;;;19.60;66.50;;;;;;5034736;28;938;-69
2022/11/18 08:24:02;;;;;;;;;;;19.60;66.60;;;;;;5035898;28;1001;-69
2022/11/18 08:26:28;;;;;;;;;;;19.60;66.50;;;;;;5039075;28;1906;-70
2022/11/18 08:28:53;;;;;;;;;;;19.60;66.60;;;;;;5019262;28;853;-70
2022/11/18 08:31:20;;;;;;;;;;;19.60;66.50;;;;;;5040431;28;887;-70
2022/11/18 08:33:45;;;;;;;;;;;19.60;66.50;;;;;;5037774;28;962;-69
2022/11/18 08:36:18;;;;;;;;;;;19.60;66.50;;;;;;5021085;28;1365;-69
2022/11/18 08:38:43;;;;;;;;;;;19.60;66.50;;;;;;5023866;28;945;-70
2022/11/18 08:41:12;;;;;;;;;;;19.60;66.50;;;;;;5037924;28;910;-68
2022/11/18 08:43:38;;;;;;;;;;;19.60;66.60;;;;;;5024778;28;1855;-69
2022/11/18 08:46:03;;;;;;;;;;;19.60;66.50;;;;;;5039064;28;1963;-68
2022/11/18 08:48:29;;;;;;;;;;;19.60;66.50;;;;;;5034055;28;912;-71
2022/11/18 08:50:54;;;;;;;;;;;19.60;66.50;;;;;;5041533;28;1313;-70
2022/11/18 08:53:20;;;;;;;;;;;19.60;66.50;;;;;;5019250;28;1474;-70
2022/11/18 08:55:45;;;;;;;;;;;19.60;66.50;;;;;;5020508;28;1413;-70
2022/11/18 08:58:11;;;;;;;;;;;19.60;66.50;;;;;;5036477;28;1300;-71
2022/11/18 09:00:37;;;;;;;;;;;19.60;66.50;;;;;;5041307;28;1344;-72
2022/11/18 09:03:03;;;;;;;;;;;19.60;66.50;;;;;;5040106;28;1395;-70
2022/11/18 09:05:28;;;;;;;;;;;19.60;66.40;;;;;;5040787;28;1418;-71
2022/11/18 09:07:54;;;;;;;;;;;19.60;66.40;;;;;;5041902;28;1965;-70
2022/11/18 09:10:19;;;;;;;;;;;19.60;66.40;;;;;;5038316;28;1451;-69
2022/11/18 09:12:45;;;;;;;;;;;19.60;66.40;;;;;;5034481;28;808;-69
2022/11/18 09:15:10;;;;;;;;;;;19.60;66.40;;;;;;5040571;28;1200;-69
2022/11/18 09:17:36;;;;;;;;;;;19.60;66.40;;;;;;5039420;28;2269;-70
2022/11/18 09:20:01;;;;;;;;;;;19.60;66.30;;;;;;5038014;28;1335;-70
2022/11/18 09:22:27;;;;;;;;;;;19.60;66.30;;;;;;5039721;28;1038;-69
2022/11/18 09:24:52;;;;;;;;;;;19.70;66.30;;;;;;5043063;28;1230;-70
2022/11/18 09:27:18;;;;;;;;;;;19.70;66.30;;;;;;5039178;28;1971;-69
2022/11/18 09:29:43;;;;;;;;;;;19.70;66.30;;;;;;5038188;28;839;-69
2022/11/18 09:32:09;;;;;;;;;;;19.70;66.20;;;;;;5040238;28;2225;-69
2022/11/18 09:34:35;;;;;;;;;;;19.70;66.20;;;;;;5038111;28;1213;-69
2022/11/18 09:37:02;;;;;;;;;;;19.70;66.20;;;;;;5038325;28;1248;-69
2022/11/18 09:39:27;;;;;;;;;;;19.70;66.20;;;;;;5036895;28;820;-69
2022/11/18 09:42:01;;;;;;;;;;;19.70;66.20;;;;;;5036862;28;835;-69
2022/11/18 09:44:34;;;;;;;;;;;19.70;66.20;;;;;;5037599;28;920;-69
2022/11/18 09:47:11;;;;;;;;;;;19.70;66.10;;;;;;5039823;28;1890;-69
2022/11/18 09:49:38;;;;;;;;;;;19.70;66.10;;;;;;5037685;28;891;-69
2022/11/18 09:52:05;;;;;;;;;;;19.70;66.10;;;;;;5036646;28;838;-71
2022/11/18 09:54:32;;;;;;;;;;;19.70;66.10;;;;;;5036090;28;1046;-69
2022/11/18 09:56:57;;;;;;;;;;;19.70;66.00;;;;;;5037274;28;1201;-70
2022/11/18 09:59:23;;;;;;;;;;;19.70;66.00;;;;;;5036811;28;939;-69
2022/11/18 10:01:49;;;;;;;;;;;19.80;66.10;;;;;;5037447;28;959;-70
2022/11/18 10:04:15;;;;;;;;;;;19.80;66.00;;;;;;5027736;28;895;-70
2022/11/18 10:06:40;;;;;;;;;;;19.80;66.00;;;;;;5037721;28;2144;-70
2022/11/18 10:09:09;;;;;;;;;;;19.70;66.00;;;;;;5034496;28;958;-70
2022/11/18 10:11:37;;;;;;;;;;;19.70;65.90;;;;;;5039415;28;875;-70
2022/11/18 10:14:11;;;;;;;;;;;19.70;65.90;;;;;;5021312;28;1490;-69
2022/11/18 10:16:57;;;;;;;;;;;19.70;66.00;;;;;;5039082;28;1282;-69
2022/11/18 10:19:33;;;;;;;;;;;19.70;66.00;;;;;;5037874;28;1316;-69
2022/11/18 10:22:01;;;;;;;;;;;19.70;66.10;;;;;;5032990;28;832;-70
2022/11/18 10:24:29;;;;;;;;;;;19.70;66.10;;;;;;5042678;28;819;-70
2022/11/18 10:26:55;;;;;;;;;;;19.70;66.20;;;;;;5036203;28;1898;-70
2022/11/18 10:29:21;;;;;;;;;;;19.70;66.20;;;;;;5027305;28;1272;-70
2022/11/18 10:32:00;;;;;;;;;;;19.70;66.30;;;;;;5030197;28;1481;-70
2022/11/18 10:34:25;;;;;;;;;;;19.60;66.30;;;;;;5019169;28;1683;-70
2022/11/18 10:37:04;;;;;;;;;;;19.60;66.30;;;;;;5032415;28;1291;-69
2022/11/18 10:39:30;;;;;;;;;;;19.60;66.40;;;;;;5015964;28;1426;-70
2022/11/18 10:41:59;;;;;;;;;;;19.60;66.40;;;;;;5021906;28;1930;-70
2022/11/18 10:44:35;;;;;;;;;;;19.60;66.50;;;;;;5028856;28;1290;-69
2022/11/18 10:47:13;;;;;;;;;;;19.60;66.50;;;;;;5030333;28;1917;-70
2022/11/18 10:49:39;;;;;;;;;;;19.50;66.50;;;;;;5006188;28;1139;-69
2022/11/18 10:52:09;;;;;;;;;;;19.60;66.60;;;;;;5022096;28;1815;-70
2022/11/18 10:54:35;;;;;;;;;;;19.60;66.60;;;;;;5024944;28;1625;-69
2022/11/18 10:57:10;;;;;;;;;;;19.50;66.70;;;;;;5012573;28;1556;-71
2022/11/18 10:59:45;;;;;;;;;;;19.50;66.70;;;;;;5039453;28;1986;-70
2022/11/18 11:02:14;;;;;;;;;;;19.50;66.80;;;;;;5037018;28;1387;-69
2022/11/18 11:04:39;;;;;;;;;;;19.50;66.80;;;;;;5033782;28;1430;-69
2022/11/18 11:07:15;;;;;;;;;;;19.50;66.80;;;;;;5039991;28;1902;-69
2022/11/18 11:09:41;;;;;;;;;;;19.50;66.90;;;;;;5024837;28;1626;-70
2022/11/18 11:12:13;;;;;;;;;;;19.50;66.90;;;;;;5036577;28;1108;-72
2022/11/18 11:14:52;;;;;;;;;;;19.40;66.90;;;;;;5016026;28;1814;-70
2022/11/18 11:17:18;;;;;;;;;;;19.40;66.90;;;;;;5034723;28;2267;-70
2022/11/18 11:19:48;;;;;;;;;;;19.40;67.00;;;;;;5021575;28;1577;-69
2022/11/18 11:22:13;;;;;;;;;;;19.40;67.00;;;;;;5037749;28;1279;-70
2022/11/18 11:24:39;;;;;;;;;;;19.40;67.00;;;;;;5020585;28;912;-69
2022/11/18 11:27:05;;;;;;;;;;;19.40;67.00;;;;;;5019754;28;1911;-70
2022/11/18 11:29:45;;;;;;;;;;;19.40;67.00;;;;;;5020513;28;2130;-70
2022/11/18 11:32:29;;;;;;;;;;;19.40;67.10;;;;;;5017200;28;2657;-69
2022/11/18 11:35:04;;;;;;;;;;;19.40;67.10;;;;;;5043151;28;2158;-70
2022/11/18 11:37:48;;;;;;;;;;;19.40;67.20;;;;;;5042072;28;2291;-69
2022/11/18 11:40:20;;;;;;;;;;;19.40;67.20;;;;;;5038148;28;2251;-70
2022/11/18 11:42:54;;;;;;;;;;;19.40;67.30;;;;;;5040932;28;1241;-70
2022/11/18 11:45:23;;;;;;;;;;;19.40;67.30;;;;;;5038038;28;1200;-69
2022/11/18 11:48:12;;;;;;;;;;;19.30;67.20;;;;;;5029275;28;1910;-69
2022/11/18 11:50:52;;;;;;;;;;;19.30;67.30;;;;;;5035385;28;1466;-70
2022/11/18 11:53:33;;;;;;;;;;;19.30;67.30;;;;;;5025311;28;971;-68
2022/11/18 11:56:11;;;;;;;;;;;19.30;63.40;;;;;;5038482;28;1280;-68
2022/11/18 11:58:55;;;;;;;;;;;19.30;51.50;;;;;;5038778;28;1562;-68
2022/11/18 12:01:34;;;;;;;;;;;19.20;48.10;;;;;;5039835;28;919;-67
2022/11/18 12:04:05;;;;;;;;;;;19.10;48.80;;;;;;5036791;28;1023;-67
2022/11/18 12:06:31;;;;;;;;;;;19.00;49.40;;;;;;5033966;28;1875;-67
2022/11/18 12:08:59;;;;;;;;;;;19.00;45.60;;;;;;5038781;28;920;-67
2022/11/18 12:11:27;;;;;;;;;;;18.90;44.40;;;;;;5037560;28;1061;-67
2022/11/18 12:13:54;;;;;;;;;;;18.80;41.70;;;;;;5039459;28;1561;-67
2022/11/18 12:16:23;;;;;;;;;;;18.70;48.60;;;;;;5036071;28;1292;-70
2022/11/18 12:18:55;;;;;;;;;;;18.70;45.90;;;;;;5019507;28;4478;-69
2022/11/18 12:21:39;;;;;;;;;;;18.60;48.20;;;;;;5037545;28;2128;-69
2022/11/18 12:24:16;;;;;;;;;;;18.60;48.80;;;;;;5041550;28;2024;-69
2022/11/18 12:26:45;;;;;;;;;;;18.60;49.70;;;;;;5036974;28;1898;-69
2022/11/18 12:29:17;;;;;;;;;;;18.50;50.90;;;;;;5038905;28;1347;-69
2022/11/18 12:31:42;;;;;;;;;;;18.50;51.70;;;;;;5022298;28;812;-69
2022/11/18 12:34:34;;;;;;;;;;;18.50;52.30;;;;;;5040709;28;807;-69
2022/11/18 12:37:25;;;;;;;;;;;18.50;52.60;;;;;;5034713;28;1369;-69
2022/11/18 12:39:54;;;;;;;;;;;18.50;52.50;;;;;;5004951;28;1433;-70
2022/11/18 12:45:46;;;;;;;;;;;18.50;53.30;;;;;;5038953;28;794;-70
2022/11/18 12:48:33;;;;;;;;;;;18.50;53.90;;;;;;5038960;28;1910;-69
2022/11/18 12:51:10;;;;;;;;;;;18.50;54.10;;;;;;5021565;28;872;-69
2022/11/18 12:53:36;;;;;;;;;;;18.50;54.60;;;;;;5021365;28;906;-69
2022/11/18 12:56:21;;;;;;;;;;;18.60;55.00;;;;;;5021972;28;932;-69
2022/11/18 12:58:50;;;;;;;;;;;18.50;55.30;;;;;;5037413;28;820;-70
2022/11/18 13:01:17;;;;;;;;;;;18.50;55.60;;;;;;5038177;28;931;-70
2022/11/18 13:03:42;;;;;;;;;;;18.50;55.90;;;;;;5038452;28;821;-69
2022/11/18 13:06:24;;;;;;;;;;;18.50;56.10;;;;;;5036247;28;1962;-69
2022/11/18 13:08:54;;;;;;;;;;;18.50;56.40;;;;;;5035692;28;2173;-69
2022/11/18 13:19:33;;;;;;;;;;;18.60;57.30;;;;;;5020836;28;915;-70
2022/11/18 13:24:51;;;;;;;;;;;18.60;57.70;;;;;;5037326;28;808;-71
2022/11/18 13:27:35;;;;;;;;;;;18.60;57.80;;;;;;5038485;28;2060;-71
2022/11/18 13:30:03;;;;;;;;;;;18.60;58.00;;;;;;5035361;28;939;-71
2022/11/18 13:32:28;;;;;;;;;;;18.60;58.20;;;;;;5037400;28;825;-71
2022/11/18 13:34:57;;;;;;;;;;;18.60;58.30;;;;;;5033594;28;890;-70
2022/11/18 13:37:24;;;;;;;;;;;18.60;58.50;;;;;;5034414;28;1260;-68
2022/11/18 13:39:49;;;;;;;;;;;18.60;58.70;;;;;;5020414;28;949;-68
2022/11/18 13:42:19;;;;;;;;;;;18.60;58.80;;;;;;5035973;28;898;-70
2022/11/18 13:44:54;;;;;;;;;;;18.60;58.80;;;;;;5037036;28;820;-69
2022/11/18 13:47:40;;;;;;;;;;;18.60;59.00;;;;;;5037211;28;1886;-68
2022/11/18 13:50:21;;;;;;;;;;;18.60;59.10;;;;;;5039143;28;1297;-69
2022/11/18 13:53:05;;;;;;;;;;;18.60;59.20;;;;;;5040872;28;898;-69
2022/11/18 13:55:33;;;;;;;;;;;18.60;59.30;;;;;;5039255;28;875;-69
2022/11/18 13:58:01;;;;;;;;;;;18.60;59.50;;;;;;5040232;28;1241;-69
2022/11/18 14:00:27;;;;;;;;;;;18.60;59.50;;;;;;5042032;28;932;-70
2022/11/18 14:02:54;;;;;;;;;;;18.60;59.70;;;;;;5043623;28;1099;-69
2022/11/18 14:05:20;;;;;;;;;;;18.60;59.80;;;;;;5027821;28;884;-70
2022/11/18 14:07:54;;;;;;;;;;;18.60;59.80;;;;;;5040728;28;2012;-70
2022/11/18 14:10:30;;;;;;;;;;;18.60;60.50;;;;;;5037910;28;1387;-69
2022/11/18 14:12:56;;;;;;;;;;;18.60;60.40;;;;;;5028436;28;1205;-70
2022/11/18 14:15:32;;;;;;;;;;;18.60;60.40;;;;;;5041083;28;1056;-68
2022/11/18 14:17:58;;;;;;;;;;;18.60;60.40;;;;;;5024048;28;1327;-68
2022/11/18 14:20:24;;;;;;;;;;;18.60;60.50;;;;;;5041903;28;898;-69
2022/11/18 14:22:59;;;;;;;;;;;18.60;60.50;;;;;;5039941;28;938;-69
2022/11/18 14:25:30;;;;;;;;;;;18.60;60.60;;;;;;5040582;28;959;-69
2022/11/18 14:28:16;;;;;;;;;;;18.60;60.70;;;;;;5038716;28;1897;-69
2022/11/18 14:30:53;;;;;;;;;;;18.60;60.70;;;;;;5028341;28;1085;-69
2022/11/18 14:33:26;;;;;;;;;;;18.60;60.80;;;;;;5032510;28;1069;-70
2022/11/18 14:35:51;;;;;;;;;;;18.60;60.90;;;;;;5037778;28;1422;-69
2022/11/18 14:38:19;;;;;;;;;;;18.60;61.10;;;;;;5035400;28;2078;-69
2022/11/18 14:40:44;;;;;;;;;;;18.60;61.10;;;;;;5039967;28;859;-69
2022/11/18 14:43:10;;;;;;;;;;;18.60;61.20;;;;;;5007612;28;911;-69
2022/11/18 14:45:36;;;;;;;;;;;18.60;61.20;;;;;;5041989;28;805;-69
2022/11/18 14:48:01;;;;;;;;;;;18.60;61.30;;;;;;5037144;28;1902;-69
2022/11/18 14:50:27;;;;;;;;;;;18.60;61.40;;;;;;5040743;28;872;-69
2022/11/18 14:52:52;;;;;;;;;;;18.60;61.40;;;;;;5037057;28;961;-68
2022/11/18 14:55:18;;;;;;;;;;;18.60;61.50;;;;;;5040850;28;847;-68
2022/11/18 14:57:43;;;;;;;;;;;18.60;61.60;;;;;;5040531;28;1300;-69
2022/11/18 15:00:12;;;;;;;;;;;18.60;61.60;;;;;;5041279;28;964;-69
2022/11/18 15:02:37;;;;;;;;;;;18.60;61.70;;;;;;5036522;28;876;-69
2022/11/18 15:05:02;;;;;;;;;;;18.60;62.50;;;;;;5041007;28;979;-69
2022/11/18 15:07:28;;;;;;;;;;;18.60;61.80;;;;;;5036885;28;1898;-69
2022/11/18 15:09:54;;;;;;;;;;;18.60;61.90;;;;;;5037955;28;865;-68